Cloverdale, Michigan
Current Conditions -  °F | °C
As of 5:53 AM on Wednesday 22 Oct 2014 (Local Time) from KBTL Reporting Station
Scattered Clouds Scattered Clouds  
Wind Chill: 34°   Ceiling: Unl
Heat Index: 34°   Visibility: 10mi
Dew Point: 31°   Wind: 3mph
Humidity: 89%   Direction: 10°N
Pressure: 30.3"   Gusts: NA
Location:  42.56°N, 85.43°W
Report Text: KBTL 220953Z 01003KT 10SM SCT019 01/M01 A3030 RMK AO2 SLP269 T00111006
Loading
Personal Weather Stations






























Interactive Weather Map
Tropical Storm Tracking
New forecast layout! Learn more

10-Day Weather Forecast

Advertisements
Track Severe Weather on mobile